Terminal Aerodrome Forecast
Issued by NWS

Home | Current Version | Previous Version | Text Only | Print | Product List | Glossary On
Versions: 1 2 3 4 5 6 7 8 9 10 11 12 13 14 15 16
000
FTUS41 KRNK 230706 AAA
TAFBCB
TAF AMD
KBCB 230706Z 2307/2406 VRB03KT P6SM -SHRA OVC018
      TEMPO 2307/2309 4SM -SHRA OVC012
     FM230900 VRB03KT P6SM OVC015
     FM231400 21005KT P6SM OVC070
     FM231700 24009KT P6SM BKN050
     FM240400 20008KT 3SM -SHRA BKN100 WS020/21040KT=

USA.gov is the U.S. government's official web portal to all federal, state and local government web resources and services.